Time;durP1;ratioP1;P1;durP2;ratioP2;P2;SDS_P1;SDS_P2;PMS_P1;PMS_P2;Temp;Humidity;BMP_temperature;BMP_pressure;BME280_temperature;BME280_humidity;BME280_pressure;Samples;Min_cycle;Max_cycle;Signal;HPM_P1;HPM_P2
2020/12/30 00:00:17;;;;;;;2.73;2.33;;;;;;;4.81;85.80;94607.31;5073864;28;20277;-60
2020/12/30 00:02:42;;;;;;;3.80;3.10;;;;;;;4.68;85.90;94612.00;5074548;28;20411;-61
2020/12/30 00:05:10;;;;;;;4.67;2.80;;;;;;;4.68;86.41;94612.00;5074451;28;20265;-56
2020/12/30 00:07:36;;;;;;;3.20;2.77;;;;;;;4.53;86.65;94609.13;5074125;28;20170;-60
2020/12/30 00:10:07;;;;;;;3.27;2.00;;;;;;;4.44;87.39;94620.91;5074646;28;20505;-61
2020/12/30 00:12:34;;;;;;;2.60;2.40;;;;;;;4.50;87.50;94610.38;5074695;28;20457;-55
2020/12/30 00:14:59;;;;;;;1.87;1.77;;;;;;;4.17;88.76;94612.81;5074259;28;20428;-56
2020/12/30 00:17:25;;;;;;;3.50;2.13;;;;;;;4.24;89.51;94610.88;5055276;28;20801;-58
2020/12/30 00:19:51;;;;;;;1.90;1.80;;;;;;;4.28;88.36;94614.59;5073648;28;20189;-61
2020/12/30 00:22:17;;;;;;;2.47;2.07;;;;;;;4.20;88.89;94615.75;5074255;28;20230;-61
2020/12/30 00:24:42;;;;;;;3.23;1.53;;;;;;;4.14;88.55;94621.88;5056233;28;20315;-61
2020/12/30 00:27:08;;;;;;;3.47;1.77;;;;;;;4.11;88.92;94621.53;5073727;28;20499;-61
2020/12/30 00:29:33;;;;;;;2.17;1.90;;;;;;;4.17;88.64;94625.81;5072880;28;20230;-56
2020/12/30 00:31:59;;;;;;;2.23;2.10;;;;;;;4.08;88.74;94625.38;5073894;28;20177;-56
2020/12/30 00:34:24;;;;;;;2.17;1.80;;;;;;;4.14;88.18;94621.88;5072770;28;20177;-56
2020/12/30 00:36:50;;;;;;;2.37;2.10;;;;;;;4.29;87.79;94631.78;5072900;28;20205;-60
2020/12/30 00:39:15;;;;;;;1.77;1.67;;;;;;;4.33;87.77;94629.53;5073929;28;20686;-56
2020/12/30 00:41:41;;;;;;;2.23;1.80;;;;;;;4.57;85.71;94626.63;5073806;28;20691;-56
2020/12/30 00:44:07;;;;;;;1.77;1.63;;;;;;;4.62;86.15;94639.72;5073339;28;20186;-61
2020/12/30 00:46:32;;;;;;;1.67;1.57;;;;;;;4.66;85.13;94634.84;5073333;28;20175;-60
2020/12/30 00:48:58;;;;;;;2.30;2.10;;;;;;;4.56;85.65;94639.84;5073631;28;20910;-56
2020/12/30 00:51:23;;;;;;;1.97;1.80;;;;;;;4.58;85.61;94638.63;5073072;28;20184;-61
2020/12/30 00:53:48;;;;;;;2.10;1.73;;;;;;;4.70;85.94;94647.16;5073573;28;20169;-61
2020/12/30 00:56:14;;;;;;;2.80;1.97;;;;;;;4.61;85.70;94655.53;5055542;28;20196;-61
2020/12/30 00:58:39;;;;;;;3.20;2.10;;;;;;;4.49;85.57;94653.00;5073239;28;20182;-61
2020/12/30 01:01:06;;;;;;;2.30;2.10;;;;;;;4.25;86.98;94656.66;5073550;28;20217;-56
2020/12/30 01:03:33;;;;;;;3.00;2.37;;;;;;;3.99;88.61;94655.31;5072737;28;20258;-60
2020/12/30 01:05:59;;;;;;;2.23;2.03;;;;;;;3.75;89.69;94653.75;5073434;28;20466;-56
2020/12/30 01:08:24;;;;;;;2.07;1.97;;;;;;;3.87;89.81;94657.16;5073073;28;20816;-60
2020/12/30 01:10:50;;;;;;;2.77;2.57;;;;;;;4.09;88.49;94663.31;5072625;28;20220;-60
2020/12/30 01:13:16;;;;;;;2.27;2.07;;;;;;;3.85;89.48;94661.78;5073404;28;20205;-56
2020/12/30 01:15:41;;;;;;;2.83;2.63;;;;;;;3.88;89.55;94657.91;5072968;28;20191;-55
2020/12/30 01:18:07;;;;;;;2.10;1.93;;;;;;;3.81;90.13;94657.25;5072829;28;20485;-56
2020/12/30 01:20:32;;;;;;;2.50;2.30;;;;;;;3.91;89.81;94663.44;5073273;28;20792;-61
2020/12/30 01:22:58;;;;;;;2.80;2.60;;;;;;;3.82;91.18;94659.59;5073071;28;20665;-56
2020/12/30 01:25:23;;;;;;;2.23;2.13;;;;;;;3.87;90.23;94657.16;5073531;28;20204;-61
2020/12/30 01:27:50;;;;;;;2.40;2.20;;;;;;;4.00;89.68;94661.31;5072882;28;20216;-61
2020/12/30 01:30:15;;;;;;;2.53;2.30;;;;;;;3.75;90.69;94660.75;5072759;28;20681;-60
2020/12/30 01:32:40;;;;;;;2.83;2.57;;;;;;;3.77;90.98;94664.69;5073133;28;20414;-56
2020/12/30 01:35:06;;;;;;;2.50;2.30;;;;;;;3.77;91.11;94671.69;5073265;28;20578;-60
2020/12/30 01:37:31;;;;;;;3.63;2.37;;;;;;;3.80;91.19;94671.25;5072499;28;20281;-61
2020/12/30 01:39:56;;;;;;;3.37;2.37;;;;;;;4.00;89.79;94684.69;5073196;28;20187;-60
2020/12/30 01:42:22;;;;;;;2.10;2.00;;;;;;;3.75;91.32;94682.31;5073428;28;20180;-56
2020/12/30 01:44:47;;;;;;;2.80;2.60;;;;;;;4.00;89.99;94679.50;5072818;28;20192;-56
2020/12/30 01:47:13;;;;;;;2.40;2.20;;;;;;;4.23;88.76;94679.47;5072732;28;20178;-56
2020/12/30 01:49:38;;;;;;;3.07;2.53;;;;;;;4.35;88.01;94682.06;5072990;28;20205;-61
2020/12/30 01:52:05;;;;;;;2.50;2.30;;;;;;;4.46;88.05;94673.44;5072639;28;20541;-60
2020/12/30 01:54:30;;;;;;;3.27;2.50;;;;;;;4.46;87.47;94670.84;5073113;28;20531;-61
2020/12/30 01:56:56;;;;;;;2.73;2.53;;;;;;;4.51;87.18;94671.72;5072732;28;20407;-61
2020/12/30 01:59:21;;;;;;;2.40;2.20;;;;;;;4.50;88.09;94679.75;5072738;28;20435;-61
2020/12/30 02:01:57;;;;;;;3.13;2.80;;;;;;;4.67;87.50;94680.63;5072604;28;20263;-60
2020/12/30 02:04:27;;;;;;;2.63;2.43;;;;;;;4.70;86.16;94678.38;5073155;28;20188;-61
2020/12/30 02:06:55;;;;;;;2.57;2.37;;;;;;;4.28;88.36;94687.38;5072406;28;20486;-60
2020/12/30 02:09:20;;;;;;;3.00;2.47;;;;;;;4.07;89.48;94686.16;5072459;28;20463;-56
2020/12/30 02:11:50;;;;;;;2.40;2.20;;;;;;;3.77;90.80;94689.88;5073059;28;20403;-61
2020/12/30 02:14:15;;;;;;;2.40;2.20;;;;;;;3.95;90.56;94687.97;5072306;28;20182;-60
2020/12/30 02:16:58;;;;;;;2.53;2.33;;;;;;;3.81;90.95;94688.41;5072446;28;20466;-56
2020/12/30 02:19:23;;;;;;;2.40;2.20;;;;;;;3.81;91.48;94701.38;5072822;28;20183;-56
2020/12/30 02:21:51;;;;;;;2.13;1.90;;;;;;;3.71;91.30;94696.78;5072609;28;20426;-61
2020/12/30 02:24:30;;;;;;;2.07;1.97;;;;;;;3.69;92.16;94691.00;5072130;28;20183;-61
2020/12/30 02:26:57;;;;;;;2.70;2.07;;;;;;;3.81;91.96;94694.41;5072361;28;20429;-56
2020/12/30 02:29:23;;;;;;;1.77;1.67;;;;;;;3.70;92.25;94697.78;5072465;28;20500;-57
2020/12/30 02:31:49;;;;;;;2.43;2.33;;;;;;;3.85;91.50;94699.94;5072940;28;20444;-56
2020/12/30 02:34:14;;;;;;;1.83;1.73;;;;;;;3.60;92.56;94704.53;5072909;28;20493;-56
2020/12/30 02:36:40;;;;;;;2.97;1.83;;;;;;;3.75;91.90;94699.72;5072534;28;20855;-60
2020/12/30 02:39:05;;;;;;;2.40;1.90;;;;;;;3.66;92.22;94691.44;5072403;28;20294;-56
2020/12/30 02:41:32;;;;;;;2.03;1.93;;;;;;;3.82;91.63;94706.34;5071865;28;20537;-56
2020/12/30 02:44:00;;;;;;;2.13;1.93;;;;;;;3.88;91.39;94705.47;5072606;28;20216;-60
2020/12/30 02:46:25;;;;;;;1.83;1.70;;;;;;;3.93;90.91;94705.56;5072062;28;20470;-60
2020/12/30 02:48:50;;;;;;;1.90;1.80;;;;;;;4.15;90.42;94709.19;5072550;28;20410;-61
2020/12/30 02:51:16;;;;;;;1.97;1.80;;;;;;;4.23;89.37;94708.06;5072448;28;20261;-56
2020/12/30 02:53:41;;;;;;;2.20;2.00;;;;;;;4.26;88.99;94710.19;5074522;28;20165;-56
2020/12/30 02:56:06;;;;;;;2.63;2.40;;;;;;;4.36;89.11;94714.84;5075458;28;20232;-56
2020/12/30 02:58:32;;;;;;;1.90;1.80;;;;;;;4.37;88.56;94717.19;5057706;28;20205;-60
2020/12/30 03:00:57;;;;;;;2.60;2.40;;;;;;;4.23;88.63;94718.47;5075910;28;20264;-61
2020/12/30 03:03:24;;;;;;;2.10;2.00;;;;;;;4.28;89.07;94721.16;5076253;28;20527;-56
2020/12/30 03:05:50;;;;;;;2.80;1.87;;;;;;;4.40;88.27;94711.56;5076020;28;20180;-55
2020/12/30 03:08:15;;;;;;;2.20;2.10;;;;;;;4.36;88.80;94712.22;5057119;28;20426;-60
2020/12/30 03:10:41;;;;;;;1.83;1.57;;;;;;;4.36;88.59;94715.63;5075239;28;20217;-56
2020/12/30 03:13:06;;;;;;;2.00;1.80;;;;;;;4.63;88.15;94718.53;5076142;28;20177;-56
2020/12/30 03:15:31;;;;;;;1.77;1.67;;;;;;;4.48;87.92;94713.78;5075721;28;20168;-56
2020/12/30 03:17:57;;;;;;;2.53;2.10;;;;;;;4.75;87.03;94721.88;5075567;28;20181;-56
2020/12/30 03:20:22;;;;;;;1.93;1.83;;;;;;;5.06;85.71;94726.66;5075737;28;20191;-61
2020/12/30 03:22:48;;;;;;;2.17;1.97;;;;;;;5.14;85.29;94721.09;5075260;28;20633;-56
2020/12/30 03:25:13;;;;;;;2.70;1.57;;;;;;;5.06;84.73;94724.06;5074866;28;20176;-56
2020/12/30 03:27:38;;;;;;;1.70;1.60;;;;;;;4.91;84.54;94726.38;5074961;28;20580;-60
2020/12/30 03:30:05;;;;;;;2.50;1.57;;;;;;;4.78;86.20;94724.03;5075508;28;20209;-56
2020/12/30 03:32:30;;;;;;;2.13;1.93;;;;;;;4.90;85.13;94730.00;5075500;28;20228;-61
2020/12/30 03:34:56;;;;;;;2.70;2.30;;;;;;;4.54;86.04;94727.69;5075493;28;20443;-56
2020/12/30 03:37:21;;;;;;;1.90;1.77;;;;;;;4.34;88.08;94724.66;5074658;28;20247;-60
2020/12/30 03:39:48;;;;;;;4.20;1.50;;;;;;;4.58;86.86;94726.22;5074189;28;20187;-56
2020/12/30 03:42:14;;;;;;;1.43;1.27;;;;;;;4.80;85.45;94727.22;5075076;28;20174;-61
2020/12/30 03:44:39;;;;;;;3.57;1.83;;;;;;;4.77;85.32;94730.25;5074811;28;20434;-61
2020/12/30 03:47:06;;;;;;;1.90;1.60;;;;;;;4.90;85.33;94728.19;5074211;28;20636;-56
2020/12/30 03:49:32;;;;;;;2.57;1.80;;;;;;;5.03;84.12;94732.34;5075008;28;20594;-61
2020/12/30 03:51:59;;;;;;;3.60;2.37;;;;;;;5.07;83.81;94730.84;5075152;28;20422;-57
2020/12/30 03:54:26;;;;;;;2.27;1.70;;;;;;;4.87;84.27;94731.22;5074576;28;20450;-56
2020/12/30 03:56:52;;;;;;;2.37;1.97;;;;;;;4.99;83.87;94724.19;5074519;28;20943;-56
2020/12/30 03:59:18;;;;;;;2.00;1.90;;;;;;;4.94;83.59;94728.50;5074877;28;20435;-61
2020/12/30 04:01:43;;;;;;;3.27;2.10;;;;;;;4.92;83.64;94726.16;5074361;28;20512;-60
2020/12/30 04:04:08;;;;;;;2.87;2.03;;;;;;;4.89;83.94;94726.59;5074789;28;20213;-56
2020/12/30 04:06:34;;;;;;;2.37;2.27;;;;;;;5.04;82.95;94728.69;5074462;28;20170;-56
2020/12/30 04:08:59;;;;;;;5.33;1.80;;;;;;;5.04;82.84;94726.88;5056614;28;20182;-61
2020/12/30 04:11:25;;;;;;;2.10;1.70;;;;;;;5.12;82.94;94726.53;5074510;28;20254;-60
2020/12/30 04:13:50;;;;;;;2.03;1.80;;;;;;;5.11;82.56;94722.34;5074147;28;20175;-56
2020/12/30 04:16:23;;;;;;;1.70;1.60;;;;;;;5.27;81.29;94718.22;5074117;28;20201;-60
2020/12/30 04:18:49;;;;;;;1.70;1.60;;;;;;;5.29;80.93;94725.78;5074586;28;20176;-61
2020/12/30 04:21:24;;;;;;;2.60;1.77;;;;;;;5.33;80.86;94732.88;5073623;28;20440;-56
2020/12/30 04:23:51;;;;;;;2.37;2.10;;;;;;;5.33;79.57;94730.28;5074533;28;20401;-61
2020/12/30 04:26:18;;;;;;;2.17;1.80;;;;;;;5.27;80.60;94733.84;5074022;28;20419;-59
2020/12/30 04:28:43;;;;;;;2.30;1.70;;;;;;;5.17;80.97;94734.44;5073986;28;20435;-56
2020/12/30 04:31:10;;;;;;;3.50;2.10;;;;;;;5.16;81.15;94737.28;5074148;28;20450;-61
2020/12/30 04:33:36;;;;;;;2.13;1.60;;;;;;;4.85;81.90;94748.09;5074205;28;20225;-60
2020/12/30 04:36:03;;;;;;;6.00;1.70;;;;;;;4.67;83.33;94736.06;5072634;28;20421;-61
2020/12/30 04:38:28;;;;;;;1.70;1.60;;;;;;;4.68;83.09;94739.44;5073449;28;20176;-56
2020/12/30 04:41:02;;;;;;;3.40;1.90;;;;;;;4.71;82.71;94749.38;5074131;28;20959;-56
2020/12/30 04:43:28;;;;;;;1.80;1.57;;;;;;;4.35;84.79;94753.03;5073548;28;20277;-61
2020/12/30 04:45:55;;;;;;;6.90;1.83;;;;;;;4.54;84.79;94748.50;5074011;28;20394;-61
2020/12/30 04:48:21;;;;;;;2.17;1.67;;;;;;;4.51;84.37;94741.16;5072985;28;20424;-56
2020/12/30 04:50:47;;;;;;;1.40;1.30;;;;;;;4.61;83.69;94747.34;5073765;28;20455;-57
2020/12/30 04:53:13;;;;;;;2.57;1.50;;;;;;;4.44;85.01;94759.47;5073351;28;20415;-56
2020/12/30 04:55:41;;;;;;;1.83;1.73;;;;;;;4.49;84.76;94754.41;5073806;28;20255;-60
2020/12/30 04:58:08;;;;;;;5.27;3.23;;;;;;;4.44;84.53;94751.66;5073460;28;20408;-56
2020/12/30 05:00:36;;;;;;;3.37;1.70;;;;;;;4.10;85.93;94755.84;5073513;28;20578;-60
2020/12/30 05:03:06;;;;;;;4.67;1.90;;;;;;;4.04;86.91;94753.38;5073528;28;20406;-60
2020/12/30 05:05:33;;;;;;;3.50;1.63;;;;;;;4.23;86.44;94765.25;5073527;28;20403;-61
2020/12/30 05:07:58;;;;;;;2.53;1.50;;;;;;;4.11;86.33;94756.66;5072281;28;20426;-56
2020/12/30 05:10:23;;;;;;;3.10;1.50;;;;;;;3.87;87.59;94757.63;5073420;28;20488;-60
2020/12/30 05:12:53;;;;;;;2.93;1.80;;;;;;;3.79;88.43;94763.94;5073706;28;20171;-56
2020/12/30 05:15:18;;;;;;;3.97;1.70;;;;;;;3.84;87.74;94766.66;5072606;28;20256;-60
2020/12/30 05:17:43;;;;;;;1.40;1.30;;;;;;;3.98;87.90;94770.66;5073041;28;20519;-56
2020/12/30 05:20:10;;;;;;;1.80;1.70;;;;;;;3.82;88.04;94775.72;5073455;28;20535;-61
2020/12/30 05:22:35;;;;;;;1.60;1.50;;;;;;;3.68;89.31;94787.28;5072884;28;20173;-60
2020/12/30 05:25:06;;;;;;;2.50;1.77;;;;;;;3.70;89.17;94796.44;5073435;28;20453;-56
2020/12/30 05:27:32;;;;;;;1.90;1.80;;;;;;;3.56;89.82;94782.06;5072852;28;20172;-60
2020/12/30 05:29:58;;;;;;;3.33;1.70;;;;;;;3.54;90.63;94791.09;5072725;28;20550;-56
2020/12/30 05:32:25;;;;;;;1.90;1.80;;;;;;;3.54;90.31;94796.28;5073416;28;20406;-61
2020/12/30 05:34:52;;;;;;;3.23;1.83;;;;;;;3.66;89.67;94792.69;5072726;28;20430;-55
2020/12/30 05:37:28;;;;;;;3.63;1.93;;;;;;;3.80;88.96;94788.13;5072542;28;20465;-61
2020/12/30 05:39:54;;;;;;;1.90;1.80;;;;;;;3.93;88.26;94801.69;5073232;28;20904;-56
2020/12/30 05:42:20;;;;;;;1.77;1.53;;;;;;;3.95;87.94;94804.84;5072879;28;20428;-61
2020/12/30 05:44:51;;;;;;;5.97;1.70;;;;;;;3.83;88.31;94805.84;5072807;28;20175;-61
2020/12/30 05:47:20;;;;;;;3.00;1.73;;;;;;;3.76;88.13;94805.94;5072870;28;20778;-56
2020/12/30 05:49:47;;;;;;;2.90;1.60;;;;;;;4.01;87.61;94803.16;5072941;28;20464;-56
2020/12/30 05:52:14;;;;;;;2.00;1.90;;;;;;;4.04;86.62;94807.94;5073196;28;20398;-61
2020/12/30 05:54:46;;;;;;;1.90;1.30;;;;;;;3.89;87.06;94810.97;5072845;28;20416;-61
2020/12/30 05:57:20;;;;;;;1.63;1.37;;;;;;;3.96;86.83;94810.84;5072381;28;20450;-60
2020/12/30 05:59:46;;;;;;;1.50;1.40;;;;;;;3.89;86.79;94813.56;5072685;28;20434;-56
2020/12/30 06:02:12;;;;;;;1.53;1.27;;;;;;;3.99;86.84;94811.19;5073174;28;20425;-56
2020/12/30 06:04:38;;;;;;;2.53;1.27;;;;;;;4.12;86.31;94820.59;5072891;28;20408;-56
2020/12/30 06:07:03;;;;;;;1.77;1.50;;;;;;;4.34;85.24;94818.25;5072642;28;20453;-61
2020/12/30 06:09:38;;;;;;;2.97;1.50;;;;;;;4.42;85.23;94823.13;5072875;28;20204;-56
2020/12/30 06:12:05;;;;;;;2.00;1.53;;;;;;;4.54;83.85;94829.91;5072080;28;20181;-60
2020/12/30 06:14:30;;;;;;;2.27;2.00;;;;;;;4.25;84.02;94832.59;5072572;28;20401;-61
2020/12/30 06:17:00;;;;;;;1.97;1.40;;;;;;;4.30;84.16;94822.28;5072534;28;20921;-60
2020/12/30 06:19:27;;;;;;;3.27;2.43;;;;;;;4.38;84.40;94834.97;5073021;28;20300;-55
2020/12/30 06:21:52;;;;;;;3.57;1.90;;;;;;;4.55;84.26;94838.50;5072939;28;21023;-60
2020/12/30 06:24:18;;;;;;;4.27;1.70;;;;;;;4.34;84.50;94836.44;5072471;28;20426;-56
2020/12/30 06:26:43;;;;;;;3.27;2.03;;;;;;;4.05;86.06;94840.69;5072141;28;20169;-59
2020/12/30 06:29:14;;;;;;;2.23;1.70;;;;;;;3.92;87.00;94852.06;5075024;28;20183;-56
2020/12/30 06:31:47;;;;;;;3.43;2.53;;;;;;;3.86;87.22;94850.34;5076871;28;20538;-55
2020/12/30 06:34:14;;;;;;;4.37;2.43;;;;;;;3.96;86.80;94850.63;5076350;28;20416;-56
2020/12/30 06:36:41;;;;;;;2.30;2.10;;;;;;;3.89;87.15;94856.91;5075831;28;20966;-60
2020/12/30 06:39:21;;;;;;;3.10;2.20;;;;;;;3.75;88.33;94860.72;5075958;28;20472;-56
2020/12/30 06:42:03;;;;;;;3.07;1.97;;;;;;;3.48;89.41;94868.03;5076344;28;20403;-60
2020/12/30 06:44:54;;;;;;;3.33;2.70;;;;;;;3.65;89.15;94866.44;5076720;28;20737;-60
2020/12/30 06:47:58;;;;;;;2.27;2.07;;;;;;;3.50;89.62;94873.00;5070264;28;20432;-60
2020/12/30 06:50:24;;;;;;;2.83;2.27;;;;;;;3.27;90.83;94873.69;5076108;28;20470;-60
2020/12/30 06:52:49;;;;;;;3.67;2.60;;;;;;;3.36;90.64;94874.97;5075796;28;20422;-55
2020/12/30 06:55:14;;;;;;;4.60;3.00;;;;;;;3.34;90.92;94879.59;5076230;28;20171;-58
2020/12/30 06:57:41;;;;;;;3.50;2.50;;;;;;;3.08;92.06;94885.06;5075733;28;20168;-60
2020/12/30 07:00:29;;;;;;;4.10;2.77;;;;;;;3.18;92.12;94880.19;5075615;28;20189;-55
2020/12/30 07:03:13;;;;;;;3.03;2.73;;;;;;;3.25;92.00;94880.09;5075417;28;20426;-60
2020/12/30 07:05:39;;;;;;;3.10;2.80;;;;;;;3.29;91.68;94887.25;5076114;28;20433;-55
2020/12/30 07:08:04;;;;;;;3.10;2.50;;;;;;;3.20;92.84;94892.94;5075131;28;20933;-60
2020/12/30 07:10:30;;;;;;;3.50;3.20;;;;;;;3.58;90.77;94886.50;5075621;28;20204;-60
2020/12/30 07:12:55;;;;;;;4.10;2.73;;;;;;;3.63;89.81;94886.63;5075420;28;20181;-55
2020/12/30 07:15:26;;;;;;;2.47;2.27;;;;;;;3.62;89.88;94895.44;5075868;28;20171;-55
2020/12/30 07:17:55;;;;;;;3.23;3.00;;;;;;;3.64;89.97;94895.97;5075588;28;20180;-60
2020/12/30 07:20:24;;;;;;;2.80;2.60;;;;;;;3.79;89.48;94898.19;5075126;28;20452;-60
2020/12/30 07:22:50;;;;;;;3.17;2.23;;;;;;;3.44;91.50;94905.03;5075328;28;20512;-55
2020/12/30 07:25:16;;;;;;;2.03;1.80;;;;;;;3.56;90.50;94906.69;5075759;28;20503;-55
2020/12/30 07:27:42;;;;;;;3.47;2.20;;;;;;;3.52;90.23;94909.91;5074738;28;20177;-56
2020/12/30 07:30:08;;;;;;;5.83;2.30;;;;;;;3.54;90.77;94913.91;5075250;28;20469;-60
2020/12/30 07:32:34;;;;;;;2.40;2.20;;;;;;;3.56;89.92;94924.06;5075548;28;20415;-60
2020/12/30 07:35:00;;;;;;;3.63;2.40;;;;;;;3.67;90.05;94926.72;5075147;28;20422;-59
2020/12/30 07:37:26;;;;;;;3.13;2.40;;;;;;;3.57;90.66;94926.44;5074961;28;20178;-56
2020/12/30 07:39:52;;;;;;;2.60;2.40;;;;;;;3.39;90.64;94934.22;5074957;28;20421;-55
2020/12/30 07:42:20;;;;;;;2.67;2.47;;;;;;;3.29;91.14;94939.13;5075073;28;20779;-55
2020/12/30 07:44:47;;;;;;;4.50;2.50;;;;;;;3.40;90.75;94943.63;5074549;28;20478;-59
2020/12/30 07:47:13;;;;;;;2.83;2.40;;;;;;;3.38;90.85;94937.84;5074821;28;20447;-55
2020/12/30 07:49:39;;;;;;;2.67;2.50;;;;;;;3.30;90.90;94945.91;5075033;28;20454;-57
2020/12/30 07:52:06;;;;;;;2.60;2.30;;;;;;;3.36;90.73;94952.03;5075064;28;20432;-60
2020/12/30 07:54:32;;;;;;;2.57;2.37;;;;;;;3.32;90.97;94949.06;5075083;28;20175;-56
2020/12/30 07:57:11;;;;;;;3.20;2.40;;;;;;;3.41;90.52;94946.97;5074514;28;20409;-56
2020/12/30 07:59:38;;;;;;;2.47;2.27;;;;;;;3.58;89.72;94953.19;5074770;28;20422;-55
2020/12/30 08:02:11;;;;;;;2.67;2.20;;;;;;;3.79;88.81;94957.94;5074505;28;20454;-56
2020/12/30 08:04:37;;;;;;;1.90;1.80;;;;;;;3.82;88.61;94960.09;5074742;28;20463;-60
2020/12/30 08:07:04;;;;;;;2.47;2.27;;;;;;;3.71;89.01;94960.84;5074267;28;20900;-60
2020/12/30 08:09:32;;;;;;;4.30;2.33;;;;;;;3.92;87.24;94961.16;5074503;28;20455;-61
2020/12/30 08:11:59;;;;;;;3.33;2.80;;;;;;;3.85;87.33;94960.47;5074072;28;20465;-59
2020/12/30 08:14:27;;;;;;;2.40;1.60;;;;;;;3.78;87.16;94977.13;5074763;28;20894;-55
2020/12/30 08:17:07;;;;;;;2.47;2.33;;;;;;;3.80;87.18;94967.31;5074274;28;20404;-55
2020/12/30 08:19:41;;;;;;;1.70;1.50;;;;;;;3.68;87.97;94969.84;5074317;28;20432;-60
2020/12/30 08:22:13;;;;;;;4.00;1.60;;;;;;;3.79;87.43;94979.50;5074149;28;20415;-56
2020/12/30 08:24:41;;;;;;;1.50;1.40;;;;;;;3.65;88.07;94970.28;5074448;28;20497;-60
2020/12/30 08:27:08;;;;;;;2.33;1.40;;;;;;;3.76;87.88;94971.34;5074097;28;20427;-59
2020/12/30 08:29:38;;;;;;;1.20;1.10;;;;;;;3.89;86.86;94971.22;5073565;28;20524;-55
2020/12/30 08:32:17;;;;;;;1.50;1.20;;;;;;;3.92;86.15;94981.16;5074459;28;20410;-60
2020/12/30 08:34:59;;;;;;;1.63;1.53;;;;;;;3.92;87.09;94983.75;5055832;28;20998;-60
2020/12/30 08:37:33;;;;;;;1.87;1.40;;;;;;;3.96;86.79;94980.50;5053813;28;20410;-57
2020/12/30 08:40:04;;;;;;;1.70;1.60;;;;;;;4.02;86.11;94984.81;5069286;28;20443;-61
2020/12/30 08:43:01;;;;;;;2.10;1.20;;;;;;;4.06;85.58;94988.56;5073612;28;20470;-62
2020/12/30 08:45:28;;;;;;;1.23;1.23;;;;;;;3.90;85.64;94989.16;5047142;28;20423;-56
2020/12/30 08:47:55;;;;;;;1.30;1.17;;;;;;;3.91;85.62;94995.94;5072986;28;20426;-57
2020/12/30 08:50:23;;;;;;;3.13;2.00;;;;;;;4.18;84.86;94999.03;5072193;28;20490;-56
2020/12/30 08:52:49;;;;;;;3.17;2.20;;;;;;;4.05;85.25;94997.38;5073135;28;20431;-63
2020/12/30 08:55:15;;;;;;;6.50;2.53;;;;;;;4.03;85.23;94999.41;5072934;28;20468;-62
2020/12/30 08:57:45;;;;;;;2.10;2.00;;;;;;;4.07;85.90;95003.16;5072674;28;20790;-57
2020/12/30 09:00:21;;;;;;;1.80;1.70;;;;;;;4.06;84.94;95001.56;5072829;28;20468;-62
2020/12/30 09:02:48;;;;;;;1.97;1.80;;;;;;;4.09;85.17;95008.91;5073920;28;20460;-63
2020/12/30 09:05:27;;;;;;;4.30;1.30;;;;;;;4.17;85.45;95010.41;5073683;28;20403;-62
2020/12/30 09:07:53;;;;;;;1.63;1.53;;;;;;;4.14;85.61;95011.66;5073238;28;20418;-56
2020/12/30 09:10:18;;;;;;;1.40;1.30;;;;;;;4.22;85.36;95007.16;5073522;28;20459;-56
2020/12/30 09:12:44;;;;;;;1.40;1.30;;;;;;;4.38;84.00;95016.94;5073745;28;20422;-62
2020/12/30 09:15:10;;;;;;;2.50;2.30;;;;;;;4.59;84.49;95012.03;5073281;28;20177;-62
2020/12/30 09:17:36;;;;;;;2.10;1.60;;;;;;;4.70;82.96;95020.91;5073126;28;20488;-62
2020/12/30 09:20:30;;;;;;;4.23;2.00;;;;;;;4.68;82.75;95020.31;5073737;28;20676;-57
2020/12/30 09:22:59;;;;;;;1.07;1.00;;;;;;;4.43;84.23;95020.47;5071110;28;20917;-56
2020/12/30 09:25:27;;;;;;;1.60;1.50;;;;;;;4.46;84.04;95025.22;5073217;28;20433;-63
2020/12/30 09:27:52;;;;;;;4.93;3.77;;;;;;;4.45;84.13;95023.66;5071248;28;20523;-61
2020/12/30 09:30:19;;;;;;;10.27;4.73;;;;;;;4.42;84.13;95025.91;5051731;28;20622;-62
2020/12/30 09:32:46;;;;;;;6.43;3.27;;;;;;;4.27;83.96;95025.50;5051462;28;20644;-57
2020/12/30 09:35:14;;;;;;;2.47;2.20;;;;;;;4.51;84.06;95025.34;5069809;28;20427;-62
2020/12/30 09:37:40;;;;;;;2.70;2.13;;;;;;;4.50;83.90;95023.78;5068979;28;20422;-57
2020/12/30 09:40:12;;;;;;;3.90;2.73;;;;;;;4.51;83.64;95033.16;5069172;28;20436;-57
2020/12/30 09:42:39;;;;;;;1.50;1.40;;;;;;;4.31;84.12;95032.66;5069503;28;20435;-59
2020/12/30 09:45:15;;;;;;;3.20;2.57;;;;;;;4.57;83.39;95034.06;5069639;28;20414;-58
2020/12/30 09:47:41;;;;;;;5.10;3.37;;;;;;;4.55;83.34;95038.72;5068992;28;20410;-60
2020/12/30 09:50:10;;;;;;;1.43;1.37;;;;;;;4.46;83.76;95043.44;5069225;28;20462;-61
2020/12/30 09:52:36;;;;;;;5.07;3.83;;;;;;;4.43;84.27;95037.88;5068613;28;20435;-61
2020/12/30 09:55:02;;;;;;;9.40;5.90;;;;;;;4.54;84.52;95037.13;5069471;28;21032;-62
2020/12/30 09:57:28;;;;;;;1.43;1.20;;;;;;;4.41;83.88;95047.69;5069178;28;20479;-61
2020/12/30 09:59:53;;;;;;;8.10;2.50;;;;;;;4.51;84.60;95038.34;5068941;28;20533;-58
2020/12/30 10:02:18;;;;;;;3.10;2.70;;;;;;;4.74;83.46;95032.44;5070656;28;20182;-61
2020/12/30 10:04:44;;;;;;;1.87;1.67;;;;;;;4.57;83.33;95047.88;5073139;28;20163;-66
2020/12/30 10:07:09;;;;;;;2.27;1.90;;;;;;;4.70;82.32;95033.91;5072910;28;20182;-62
2020/12/30 10:09:34;;;;;;;7.30;4.70;;;;;;;4.78;81.56;95042.16;5072911;28;20299;-59
2020/12/30 10:12:00;;;;;;;4.77;3.57;;;;;;;4.89;80.88;95048.44;5073428;28;20177;-58
2020/12/30 10:14:25;;;;;;;2.43;1.80;;;;;;;4.92;80.75;95046.19;5072727;28;20186;-58
2020/12/30 10:16:51;;;;;;;11.83;7.20;;;;;;;4.75;82.19;95044.44;5058179;28;20265;-57
2020/12/30 10:19:16;;;;;;;4.83;3.20;;;;;;;4.93;80.45;95047.75;5076686;28;20193;-64
2020/12/30 10:21:41;;;;;;;5.00;1.63;;;;;;;4.68;81.57;95052.34;5076775;28;20181;-58
2020/12/30 10:24:07;;;;;;;10.60;6.27;;;;;;;4.64;81.45;95048.59;5076069;28;20268;-64
2020/12/30 10:26:33;;;;;;;1.80;1.63;;;;;;;4.75;80.88;95049.63;5076249;28;20178;-64
2020/12/30 10:28:59;;;;;;;2.00;1.20;;;;;;;4.86;80.48;95051.47;5076639;28;20201;-64
2020/12/30 10:31:24;;;;;;;2.30;1.10;;;;;;;5.04;81.05;95044.41;5076476;28;20460;-64
2020/12/30 10:33:51;;;;;;;2.10;1.50;;;;;;;5.14;80.92;95046.44;5076142;28;20174;-57
2020/12/30 10:36:16;;;;;;;1.63;1.53;;;;;;;5.07;79.32;95050.97;5076403;28;20257;-62
2020/12/30 10:38:41;;;;;;;6.77;6.17;;;;;;;5.30;79.34;95050.19;5075970;28;20474;-57
2020/12/30 10:41:07;;;;;;;1.40;1.30;;;;;;;5.28;78.18;95060.84;5075588;28;20186;-57
2020/12/30 10:43:32;;;;;;;2.43;1.80;;;;;;;5.29;78.79;95059.03;5076143;28;20177;-64
2020/12/30 10:45:57;;;;;;;2.17;1.53;;;;;;;5.06;79.71;95054.56;5076164;28;20658;-63
2020/12/30 10:48:23;;;;;;;1.30;1.20;;;;;;;5.19;78.94;95060.38;5075830;28;20178;-64
2020/12/30 10:50:48;;;;;;;1.80;1.70;;;;;;;5.43;79.42;95068.22;5076127;28;20200;-63
2020/12/30 10:53:13;;;;;;;2.10;1.67;;;;;;;5.48;79.26;95058.72;5075644;28;20261;-57
2020/12/30 10:55:39;;;;;;;1.80;1.70;;;;;;;5.43;78.10;95057.78;5076013;28;20192;-57
2020/12/30 10:58:04;;;;;;;1.20;1.20;;;;;;;5.40;78.81;95066.84;5075358;28;20652;-57
2020/12/30 11:00:29;;;;;;;1.80;1.70;;;;;;;5.21;79.82;95057.56;5075971;28;20276;-64
2020/12/30 11:02:55;;;;;;;2.33;2.07;;;;;;;5.20;80.04;95063.75;5075579;28;20177;-57
2020/12/30 11:05:20;;;;;;;1.63;1.53;;;;;;;5.18;80.87;95058.00;5076049;28;20169;-58
2020/12/30 11:07:46;;;;;;;1.70;1.60;;;;;;;4.93;82.65;95057.38;5075577;28;20206;-57
2020/12/30 11:10:11;;;;;;;1.50;1.37;;;;;;;5.14;81.62;95070.69;5075348;28;20212;-69
2020/12/30 11:12:37;;;;;;;2.00;1.53;;;;;;;5.27;81.34;95069.69;5075517;28;20208;-65
2020/12/30 11:15:04;;;;;;;1.57;1.30;;;;;;;5.23;80.47;95063.34;5075097;28;20256;-64
2020/12/30 11:17:29;;;;;;;2.27;1.40;;;;;;;5.40;80.53;95073.88;5075101;28;20173;-64
2020/12/30 11:19:55;;;;;;;2.40;1.20;;;;;;;5.36;80.31;95055.31;5074854;28;20801;-58
2020/12/30 11:22:20;;;;;;;1.93;1.10;;;;;;;5.34;81.52;95065.16;5076279;28;20172;-64
2020/12/30 11:24:46;;;;;;;2.73;1.33;;;;;;;5.34;80.78;95059.94;5075588;28;20671;-67
2020/12/30 11:27:11;;;;;;;1.97;1.60;;;;;;;5.52;80.28;95054.63;5075109;28;20204;-66
2020/12/30 11:29:37;;;;;;;2.43;1.67;;;;;;;5.47;81.14;95062.31;5074413;28;20201;-63
2020/12/30 11:32:02;;;;;;;2.63;1.17;;;;;;;5.75;78.97;95056.44;5075272;28;20171;-58
2020/12/30 11:34:27;;;;;;;1.70;1.30;;;;;;;5.72;79.31;95052.47;5075565;28;20185;-63
2020/12/30 11:36:53;;;;;;;0.90;0.90;;;;;;;5.66;80.79;95053.38;5074669;28;20572;-63
2020/12/30 11:39:19;;;;;;;1.40;1.30;;;;;;;5.49;81.08;95056.91;5075296;28;20668;-58
2020/12/30 11:41:48;;;;;;;1.77;1.10;;;;;;;5.52;80.98;95064.25;5075282;28;20524;-63